Time;durP1;ratioP1;P1;durP2;ratioP2;P2;SDS_P1;SDS_P2;PMS_P1;PMS_P2;Temp;Humidity;BMP_temperature;BMP_pressure;BME280_temperature;BME280_humidity;BME280_pressure;Samples;Min_cycle;Max_cycle;Signal;HPM_P1;HPM_P2
2021/06/10 00:00:15;;;;;;;10.30;7.50;;;;;;;13.78;nan;97057.50;3504131;40;20802;-74
2021/06/10 00:02:43;;;;;;;11.33;7.03;;;;;;;13.88;nan;97049.75;3506806;40;20463;-74
2021/06/10 00:05:12;;;;;;;12.43;7.10;;;;;;;13.87;nan;97053.34;3496782;40;20955;-73
2021/06/10 00:07:40;;;;;;;11.27;7.50;;;;;;;13.81;nan;97059.91;3494451;40;20472;-73
2021/06/10 00:10:10;;;;;;;13.37;7.30;;;;;;;13.77;nan;97047.94;3504759;40;20550;-74
2021/06/10 00:12:39;;;;;;;10.00;8.13;;;;;;;13.74;nan;97056.03;3505691;40;20796;-73
2021/06/10 00:15:10;;;;;;;10.73;7.67;;;;;;;13.75;nan;97061.19;3493547;40;20467;-74
2021/06/10 00:17:37;;;;;;;10.60;7.80;;;;;;;13.79;nan;97056.53;3511822;40;20479;-74
2021/06/10 00:20:11;;;;;;;10.50;7.53;;;;;;;13.78;nan;97057.50;3506053;40;20503;-74
2021/06/10 00:22:43;;;;;;;10.67;7.70;;;;;;;13.75;nan;97049.84;3509746;40;20466;-74
2021/06/10 00:25:13;;;;;;;10.53;7.83;;;;;;;13.60;nan;97062.31;3505678;40;20613;-74
2021/06/10 00:27:42;;;;;;;11.27;7.67;;;;;;;13.54;nan;97058.34;3512236;40;20537;-74
2021/06/10 00:30:15;;;;;;;10.57;7.90;;;;;;;13.58;nan;97064.22;3506303;40;20792;-73
2021/06/10 00:32:47;;;;;;;11.57;7.40;;;;;;;13.60;nan;97060.56;3510897;40;20460;-73
2021/06/10 00:35:15;;;;;;;8.90;6.77;;;;;;;13.64;nan;97055.88;3507103;40;20557;-74
2021/06/10 00:37:43;;;;;;;9.27;6.43;;;;;;;13.60;nan;97054.44;3512551;40;20584;-74
2021/06/10 00:40:13;;;;;;;14.10;7.60;;;;;;;13.60;nan;97065.81;3506037;40;21162;-73
2021/06/10 00:42:43;;;;;;;11.50;6.87;;;;;;;13.54;nan;97054.88;3502693;40;20788;-73
2021/06/10 00:45:14;;;;;;;17.50;7.13;;;;;;;13.52;nan;97067.31;3498346;40;20879;-73
2021/06/10 00:47:41;;;;;;;8.67;7.73;;;;;;;13.58;nan;97065.09;3506931;40;20925;-74
2021/06/10 00:50:10;;;;;;;9.90;7.60;;;;;;;13.58;nan;97067.72;3490064;40;20720;-73
2021/06/10 00:52:39;;;;;;;8.67;6.90;;;;;;;13.54;nan;97066.25;3505513;40;20675;-73
2021/06/10 00:55:08;;;;;;;13.70;7.10;;;;;;;13.53;nan;97064.59;3503550;40;20860;-74
2021/06/10 00:57:37;;;;;;;12.13;8.17;;;;;;;13.41;nan;97060.22;3505790;40;20542;-73
2021/06/10 01:00:08;;;;;;;10.73;7.43;;;;;;;13.48;nan;97069.31;3504350;40;20927;-74
2021/06/10 01:02:35;;;;;;;12.33;7.87;;;;;;;13.45;nan;97069.56;3508758;40;20793;-74
2021/06/10 01:05:04;;;;;;;8.97;7.70;;;;;;;13.46;nan;97058.06;3504900;40;20658;-71
2021/06/10 01:07:38;;;;;;;14.07;8.53;;;;;;;13.48;nan;97063.22;3506605;40;20708;-70
2021/06/10 01:10:13;;;;;;;9.63;7.77;;;;;;;13.38;nan;97056.00;3505229;40;20482;-73
2021/06/10 01:12:53;;;;;;;11.73;7.07;;;;;;;13.33;nan;97060.78;3506746;40;20835;-74
2021/06/10 01:15:24;;;;;;;9.77;7.40;;;;;;;13.33;nan;97062.53;3503309;40;20528;-73
2021/06/10 01:17:52;;;;;;;11.10;6.90;;;;;;;13.32;nan;97051.19;3507092;40;20553;-73
2021/06/10 01:20:22;;;;;;;10.03;7.43;;;;;;;13.30;nan;97063.63;3503531;40;20574;-73
2021/06/10 01:23:09;;;;;;;9.43;7.87;;;;;;;13.20;nan;97050.25;3505693;40;20935;-74
2021/06/10 01:25:46;;;;;;;9.77;7.47;;;;;;;13.23;nan;97063.19;3503652;40;21016;-74
2021/06/10 01:28:19;;;;;;;7.37;6.33;;;;;;;13.23;nan;97057.94;3506409;40;20455;-74
2021/06/10 01:30:50;;;;;;;8.90;7.00;;;;;;;13.24;nan;97054.34;3505990;40;20475;-73
2021/06/10 01:33:21;;;;;;;15.50;8.13;;;;;;;13.16;nan;97056.69;3507539;40;20836;-73
2021/06/10 01:35:54;;;;;;;8.10;6.73;;;;;;;12.95;nan;97037.19;3493965;40;20491;-74
2021/06/10 01:38:24;;;;;;;9.60;8.10;;;;;;;13.09;nan;97055.44;3497188;40;21028;-74
2021/06/10 01:40:53;;;;;;;8.50;6.80;;;;;;;13.15;nan;97055.03;3506418;40;20482;-73
2021/06/10 01:43:23;;;;;;;8.00;6.37;;;;;;;13.09;nan;97054.63;3505818;40;20925;-74
2021/06/10 01:45:51;;;;;;;16.20;7.23;;;;;;;13.02;nan;97044.53;3507405;40;20819;-74
2021/06/10 01:48:20;;;;;;;7.40;5.70;;;;;;;12.84;nan;97045.88;3507822;40;20541;-74
2021/06/10 01:50:49;;;;;;;7.80;6.23;;;;;;;12.86;nan;97050.06;3504586;40;20482;-73
2021/06/10 01:53:18;;;;;;;10.10;6.57;;;;;;;12.91;nan;97044.47;3501091;40;20790;-74
2021/06/10 01:55:47;;;;;;;9.80;6.23;;;;;;;12.93;nan;97055.69;3503502;40;20785;-73
2021/06/10 01:58:17;;;;;;;10.37;6.70;;;;;;;12.94;nan;97048.69;3506259;40;21128;-74
2021/06/10 02:00:49;;;;;;;11.90;6.90;;;;;;;12.92;nan;97050.59;3503446;40;20941;-73
2021/06/10 02:03:20;;;;;;;10.30;6.50;;;;;;;12.91;nan;97046.25;3507485;40;20470;-72
2021/06/10 02:05:48;;;;;;;7.07;5.70;;;;;;;12.82;nan;97042.50;3503836;40;20977;-73
2021/06/10 02:08:18;;;;;;;10.93;6.70;;;;;;;12.89;nan;97051.63;3507111;40;20588;-74
2021/06/10 02:10:48;;;;;;;8.77;6.90;;;;;;;12.85;nan;97047.53;3503336;40;21187;-72
2021/06/10 02:13:16;;;;;;;12.43;6.23;;;;;;;12.74;nan;97052.69;3504756;40;20820;-74
2021/06/10 02:15:46;;;;;;;8.60;5.93;;;;;;;12.66;nan;97055.84;3502402;40;20687;-74
2021/06/10 02:18:14;;;;;;;8.10;6.30;;;;;;;12.61;nan;97055.34;3508125;40;20548;-73
2021/06/10 02:20:42;;;;;;;10.90;6.93;;;;;;;12.57;nan;97044.22;3505194;40;20863;-74
2021/06/10 02:23:10;;;;;;;8.70;6.87;;;;;;;12.61;nan;97040.44;3506651;40;20451;-74
2021/06/10 02:25:38;;;;;;;9.90;6.50;;;;;;;12.63;nan;97048.22;3503547;40;20600;-74
2021/06/10 02:28:06;;;;;;;8.73;6.70;;;;;;;12.62;nan;97041.25;3506968;40;20463;-73
2021/06/10 02:30:34;;;;;;;10.57;6.83;;;;;;;12.58;nan;97039.78;3497923;40;20804;-73
2021/06/10 02:33:03;;;;;;;9.50;7.10;;;;;;;12.50;nan;97042.94;3506410;40;20440;-73
2021/06/10 02:35:31;;;;;;;10.60;7.83;;;;;;;12.43;nan;97037.28;3504975;40;20953;-73
2021/06/10 02:38:01;;;;;;;15.00;7.03;;;;;;;12.52;nan;97041.06;3506210;40;20565;-73
2021/06/10 02:40:33;;;;;;;10.40;7.20;;;;;;;12.51;nan;97042.03;3503347;40;20587;-73
2021/06/10 02:43:03;;;;;;;10.10;6.30;;;;;;;12.49;nan;97038.66;3496545;40;20750;-72
2021/06/10 02:45:32;;;;;;;12.20;6.80;;;;;;;12.49;nan;97040.47;3503033;40;20484;-73
2021/06/10 02:48:01;;;;;;;7.50;6.67;;;;;;;12.51;nan;97044.66;3505834;40;20466;-73
2021/06/10 02:50:31;;;;;;;10.50;7.40;;;;;;;12.53;nan;97036.66;3504591;40;20938;-73
2021/06/10 02:53:00;;;;;;;20.47;7.57;;;;;;;12.59;nan;97038.88;3507995;40;20568;-74
2021/06/10 02:55:28;;;;;;;12.30;6.77;;;;;;;12.46;nan;97031.81;3504191;40;20476;-73
2021/06/10 02:57:58;;;;;;;9.27;6.53;;;;;;;12.48;nan;97025.63;3504899;40;20793;-72
2021/06/10 03:00:28;;;;;;;10.10;7.07;;;;;;;12.34;nan;97035.28;3505990;40;21118;-73
2021/06/10 03:02:56;;;;;;;9.73;6.27;;;;;;;12.37;nan;97034.25;3507164;40;20579;-73
2021/06/10 03:05:25;;;;;;;10.77;7.80;;;;;;;12.35;nan;97029.13;3504835;40;20490;-73
2021/06/10 03:07:55;;;;;;;10.87;8.00;;;;;;;12.26;nan;97037.63;3507638;40;20679;-73
2021/06/10 03:10:26;;;;;;;10.60;7.60;;;;;;;12.31;nan;97043.41;3505069;40;20585;-73
2021/06/10 03:12:56;;;;;;;13.53;8.10;;;;;;;12.26;nan;97040.25;3499387;40;20469;-73
2021/06/10 03:15:25;;;;;;;9.40;7.47;;;;;;;12.25;nan;97042.03;3502985;40;20675;-73
2021/06/10 03:17:52;;;;;;;13.90;7.77;;;;;;;12.23;nan;97043.06;3507738;40;20575;-74
2021/06/10 03:20:21;;;;;;;9.67;8.03;;;;;;;12.29;nan;97034.78;3504736;40;20568;-74
2021/06/10 03:22:49;;;;;;;10.37;7.40;;;;;;;12.26;nan;97040.25;3498059;40;20797;-74
2021/06/10 03:25:18;;;;;;;13.10;7.90;;;;;;;12.24;nan;97039.50;3504431;40;20961;-74
2021/06/10 03:27:47;;;;;;;8.90;6.43;;;;;;;12.16;nan;97033.94;3505738;40;20725;-74
2021/06/10 03:30:16;;;;;;;13.93;7.47;;;;;;;12.13;nan;97045.47;3504797;40;20840;-74
2021/06/10 03:32:44;;;;;;;12.67;6.63;;;;;;;11.85;nan;97046.47;3506920;40;20777;-73
2021/06/10 03:35:12;;;;;;;8.43;6.67;;;;;;;12.05;nan;97047.78;3505664;40;20961;-73
2021/06/10 03:37:40;;;;;;;17.87;7.10;;;;;;;12.05;nan;97046.03;3494141;40;20470;-74
2021/06/10 03:40:11;;;;;;;10.07;7.03;;;;;;;12.04;nan;97043.50;3505911;40;20961;-73
2021/06/10 03:42:41;;;;;;;9.67;7.03;;;;;;;11.85;nan;97044.69;3506328;40;20605;-73
2021/06/10 03:45:12;;;;;;;7.47;6.40;;;;;;;11.93;nan;97041.56;3503080;40;20732;-72
2021/06/10 03:47:44;;;;;;;9.63;6.37;;;;;;;12.11;nan;97050.00;3506761;40;20690;-73
2021/06/10 03:50:13;;;;;;;10.50;7.30;;;;;;;12.16;nan;97044.44;3505309;40;21026;-74
2021/06/10 03:52:40;;;;;;;15.20;6.83;;;;;;;12.25;nan;97049.06;3507513;40;20563;-74
2021/06/10 03:55:08;;;;;;;10.37;6.67;;;;;;;12.26;nan;97042.88;3503413;40;20479;-73
2021/06/10 03:57:40;;;;;;;12.73;6.90;;;;;;;12.25;nan;97043.78;3506695;40;20766;-71
2021/06/10 04:00:09;;;;;;;9.80;7.17;;;;;;;12.21;nan;97044.97;3503416;40;20491;-72
2021/06/10 04:02:37;;;;;;;14.20;7.20;;;;;;;12.20;nan;97044.13;3506748;40;20639;-71
2021/06/10 04:05:08;;;;;;;8.97;7.00;;;;;;;12.30;nan;97033.84;3505650;40;20496;-72
2021/06/10 04:07:36;;;;;;;9.30;7.00;;;;;;;12.32;nan;97028.47;3507907;40;20906;-72
2021/06/10 04:10:04;;;;;;;10.30;7.50;;;;;;;12.26;nan;97033.19;3505663;40;21132;-72
2021/06/10 04:12:31;;;;;;;14.37;6.63;;;;;;;12.09;nan;97043.19;3507217;40;21234;-74
2021/06/10 04:15:00;;;;;;;15.30;7.43;;;;;;;12.40;nan;97029.63;3505459;40;20753;-74
2021/06/10 04:17:28;;;;;;;11.17;7.87;;;;;;;12.48;nan;97036.13;3507554;40;20454;-72
2021/06/10 04:19:55;;;;;;;11.23;8.00;;;;;;;12.51;nan;97028.06;3503895;40;21011;-71
2021/06/10 04:22:23;;;;;;;13.23;7.43;;;;;;;12.62;nan;97033.38;3502197;40;20474;-72
2021/06/10 04:24:52;;;;;;;11.20;7.43;;;;;;;12.79;nan;97027.78;3501736;40;20480;-74
2021/06/10 04:27:22;;;;;;;9.87;7.50;;;;;;;12.87;nan;97029.84;3525048;40;20517;-74
2021/06/10 04:29:49;;;;;;;10.50;7.20;;;;;;;12.89;nan;97037.63;3512585;40;20518;-74
2021/06/10 04:32:18;;;;;;;9.37;7.10;;;;;;;12.75;nan;97033.38;3507478;40;20573;-74
2021/06/10 04:34:46;;;;;;;9.37;7.70;;;;;;;12.44;nan;97033.72;3506598;40;20461;-74
2021/06/10 04:37:13;;;;;;;9.63;7.07;;;;;;;12.80;nan;97028.59;3506437;40;20482;-71
2021/06/10 04:39:41;;;;;;;14.37;7.80;;;;;;;12.79;nan;97034.81;3504484;40;20473;-71
2021/06/10 04:42:10;;;;;;;12.40;7.77;;;;;;;12.45;nan;97031.94;3507241;40;20880;-71
2021/06/10 04:44:37;;;;;;;10.83;7.50;;;;;;;12.64;nan;97031.47;3503249;40;20552;-71
2021/06/10 04:47:05;;;;;;;12.37;7.77;;;;;;;13.00;nan;97033.28;3507183;40;20547;-71
2021/06/10 04:49:36;;;;;;;10.73;8.53;;;;;;;13.34;nan;97033.50;3505171;40;20477;-71
2021/06/10 04:52:05;;;;;;;11.73;7.47;;;;;;;13.55;nan;97033.72;3506770;40;20923;-72
2021/06/10 04:54:34;;;;;;;9.20;7.20;;;;;;;13.33;nan;97030.97;3505657;40;20506;-73
2021/06/10 04:57:02;;;;;;;13.30;7.93;;;;;;;13.67;nan;97039.03;3507701;40;20469;-74
2021/06/10 04:59:29;;;;;;;11.30;7.17;;;;;;;13.90;nan;97035.53;3505595;40;20827;-73
2021/06/10 05:01:56;;;;;;;9.70;7.17;;;;;;;13.89;nan;97038.28;3506780;40;20835;-75
2021/06/10 05:04:24;;;;;;;9.17;7.50;;;;;;;13.90;nan;97037.31;3495182;40;20746;-76
2021/06/10 05:06:54;;;;;;;8.67;7.57;;;;;;;14.11;nan;97045.38;3507765;40;20545;-75
2021/06/10 05:09:21;;;;;;;13.27;7.60;;;;;;;14.60;nan;97049.53;3505388;40;20782;-73
2021/06/10 05:11:49;;;;;;;8.60;6.47;;;;;;;14.82;nan;97040.81;3508789;40;20542;-74
2021/06/10 05:14:16;;;;;;;14.60;6.97;;;;;;;14.77;nan;97042.97;3504275;40;20914;-72
2021/06/10 05:16:44;;;;;;;13.63;7.83;;;;;;;14.97;nan;97049.28;3507027;40;20538;-71
2021/06/10 05:19:12;;;;;;;15.23;7.80;;;;;;;15.06;nan;97040.66;3501987;40;20789;-74
2021/06/10 05:21:39;;;;;;;25.83;8.63;;;;;;;15.00;nan;97043.78;3497150;40;20690;-73
2021/06/10 05:24:09;;;;;;;74.03;38.33;;;;;;;15.26;nan;97040.84;3504406;40;20811;-72
2021/06/10 05:26:36;;;;;;;87.10;30.40;;;;;;;15.47;nan;97039.09;3506518;40;20816;-73
2021/06/10 05:29:04;;;;;;;60.43;25.77;;;;;;;15.50;nan;97038.84;3504192;40;20495;-71
2021/06/10 05:31:32;;;;;;;41.87;8.00;;;;;;;15.41;nan;97042.25;3507308;40;20479;-72
2021/06/10 05:34:00;;;;;;;37.77;8.13;;;;;;;15.54;nan;97044.72;3505942;40;20475;-72
2021/06/10 05:36:27;;;;;;;20.73;7.13;;;;;;;15.78;nan;97039.25;3498111;40;20694;-73
2021/06/10 05:38:54;;;;;;;14.87;6.63;;;;;;;15.99;nan;97037.47;3505743;40;20907;-72
2021/06/10 05:41:23;;;;;;;18.33;6.83;;;;;;;15.73;nan;97039.63;3508121;40;20467;-72
2021/06/10 05:43:50;;;;;;;16.70;8.47;;;;;;;15.78;nan;97047.19;3506197;40;20935;-72
2021/06/10 05:46:20;;;;;;;13.20;6.70;;;;;;;15.74;nan;97053.66;3507867;40;20828;-72
2021/06/10 05:48:47;;;;;;;11.43;6.80;;;;;;;15.68;nan;97049.72;3506324;40;20689;-72
2021/06/10 05:51:15;;;;;;;11.30;7.90;;;;;;;16.08;nan;97050.88;3499944;40;20840;-71
2021/06/10 05:53:42;;;;;;;15.60;6.93;;;;;;;15.97;nan;97052.59;3506146;40;20871;-73
2021/06/10 05:56:10;;;;;;;10.20;7.83;;;;;;;16.27;nan;97048.34;3499185;40;20874;-72
2021/06/10 05:58:38;;;;;;;93.67;54.83;;;;;;;16.50;nan;97043.72;3504890;40;20999;-72
2021/06/10 06:01:06;;;;;;;17.60;10.90;;;;;;;16.09;nan;97056.03;3508236;40;20813;-73
2021/06/10 06:03:33;;;;;;;12.63;8.07;;;;;;;16.31;nan;97059.50;3506277;40;20459;-73
2021/06/10 06:06:01;;;;;;;11.90;7.67;;;;;;;16.25;nan;97057.34;3506551;40;21028;-72
2021/06/10 06:08:30;;;;;;;19.57;7.73;;;;;;;16.66;nan;97051.22;3504508;40;20740;-72
2021/06/10 06:10:58;;;;;;;9.40;7.30;;;;;;;17.13;nan;97046.25;3512778;40;20467;-73
2021/06/10 06:13:34;;;;;;;12.90;7.57;;;;;;;16.63;nan;97051.47;3506827;40;20535;-72
2021/06/10 06:16:06;;;;;;;15.03;6.97;;;;;;;17.05;nan;97055.81;3493973;40;20472;-72
2021/06/10 06:18:34;;;;;;;10.93;8.00;;;;;;;17.67;nan;97056.50;3506073;40;20566;-72
2021/06/10 06:21:01;;;;;;;15.43;7.57;;;;;;;17.96;nan;97061.81;3506883;40;21400;-72
2021/06/10 06:23:30;;;;;;;11.00;7.17;;;;;;;18.18;nan;97058.84;3504626;40;20825;-73
2021/06/10 06:25:58;;;;;;;14.73;7.53;;;;;;;18.17;nan;97051.91;3508721;40;20439;-73
2021/06/10 06:28:26;;;;;;;9.20;7.23;;;;;;;18.47;nan;97057.13;3505386;40;20945;-73
2021/06/10 06:30:54;;;;;;;8.30;6.53;;;;;;;18.58;nan;97054.28;3509074;40;20890;-70
2021/06/10 06:33:23;;;;;;;8.20;6.57;;;;;;;18.69;nan;97064.72;3508187;40;20511;-70
2021/06/10 06:35:51;;;;;;;31.93;19.00;;;;;;;18.62;nan;97063.66;3507946;40;20447;-72
2021/06/10 06:38:18;;;;;;;38.80;20.73;;;;;;;18.88;nan;97057.72;3509132;40;20547;-70
2021/06/10 06:40:48;;;;;;;16.93;7.80;;;;;;;18.77;nan;97059.53;3506225;40;20558;-70
2021/06/10 06:43:15;;;;;;;14.43;6.73;;;;;;;18.66;nan;97059.72;3508337;40;21024;-70
2021/06/10 06:45:43;;;;;;;10.20;6.90;;;;;;;18.49;nan;97065.78;3503947;40;20483;-71
2021/06/10 06:48:13;;;;;;;9.53;7.43;;;;;;;19.03;nan;97064.19;3509303;40;20816;-69
2021/06/10 06:50:42;;;;;;;9.53;7.17;;;;;;;19.13;nan;97067.66;3498195;40;20523;-71
2021/06/10 06:53:09;;;;;;;14.10;7.67;;;;;;;18.98;nan;97065.66;3509941;40;20463;-69
2021/06/10 06:55:37;;;;;;;12.10;7.50;;;;;;;19.01;nan;97066.16;3506511;40;20557;-70
2021/06/10 06:58:04;;;;;;;11.83;6.80;;;;;;;19.15;nan;97067.50;3508362;40;20768;-70
2021/06/10 07:00:32;;;;;;;8.73;7.83;;;;;;;19.31;nan;97064.22;3506139;40;20487;-69
2021/06/10 07:02:59;;;;;;;24.97;9.10;;;;;;;19.39;nan;97066.13;3500902;40;20859;-70
2021/06/10 07:05:26;;;;;;;9.60;8.33;;;;;;;19.90;nan;97076.13;3507436;40;20546;-71
2021/06/10 07:07:55;;;;;;;10.97;8.80;;;;;;;20.02;nan;97075.91;3508557;40;20816;-69
2021/06/10 07:10:22;;;;;;;29.00;16.60;;;;;;;20.44;nan;97080.53;3506321;40;20495;-70
2021/06/10 07:12:50;;;;;;;15.30;11.70;;;;;;;20.39;nan;97072.19;3500147;40;20849;-72
2021/06/10 07:15:17;;;;;;;16.20;10.33;;;;;;;20.05;nan;97080.88;3505923;40;20589;-72
2021/06/10 07:17:45;;;;;;;10.37;7.80;;;;;;;20.26;nan;97078.75;3508358;40;20566;-71
2021/06/10 07:20:13;;;;;;;12.93;10.40;;;;;;;20.06;nan;97079.91;3506134;40;20495;-70
2021/06/10 07:22:41;;;;;;;11.67;9.90;;;;;;;20.19;nan;97087.47;3507698;40;20843;-70
2021/06/10 07:25:10;;;;;;;10.77;9.30;;;;;;;20.42;nan;97079.84;3503588;40;20534;-70
2021/06/10 07:27:38;;;;;;;14.33;11.20;;;;;;;20.20;nan;97087.34;3506952;40;20852;-70
2021/06/10 07:30:07;;;;;;;14.53;11.20;;;;;;;20.82;nan;97078.50;3507024;40;20472;-69
2021/06/10 07:32:35;;;;;;;18.80;11.20;;;;;;;20.82;nan;97086.47;3510502;40;20704;-71
2021/06/10 07:35:03;;;;;;;13.60;9.97;;;;;;;20.86;nan;97080.66;3508190;40;20840;-70
2021/06/10 07:37:31;;;;;;;15.07;10.80;;;;;;;21.12;nan;97074.47;3510995;40;20848;-70
2021/06/10 07:39:58;;;;;;;13.00;10.90;;;;;;;21.21;nan;97076.16;3508719;40;20697;-69
2021/06/10 07:42:27;;;;;;;15.33;11.50;;;;;;;21.53;nan;97085.28;3511641;40;20474;-71
2021/06/10 07:44:55;;;;;;;16.37;12.50;;;;;;;21.65;nan;97077.81;3508149;40;20506;-72
2021/06/10 07:47:22;;;;;;;25.33;19.23;;;;;;;22.09;nan;97083.72;3498635;40;20689;-70
2021/06/10 07:49:50;;;;;;;37.80;28.33;;;;;;;22.18;nan;97081.88;3505771;40;20487;-71
2021/06/10 07:52:17;;;;;;;14.57;11.60;;;;;;;22.74;nan;97081.16;3509900;40;20847;-70
2021/06/10 07:54:45;;;;;;;13.20;10.67;;;;;;;22.82;nan;97081.16;3505552;40;20698;-71
2021/06/10 07:57:13;;;;;;;11.83;10.17;;;;;;;22.18;nan;97091.72;3508901;40;20488;-70
2021/06/10 07:59:42;;;;;;;15.73;11.53;;;;;;;22.06;nan;97091.22;3506826;40;20514;-72
2021/06/10 08:02:09;;;;;;;13.03;11.00;;;;;;;22.52;nan;97086.22;3508405;40;20904;-69
2021/06/10 08:04:37;;;;;;;17.47;12.43;;;;;;;21.65;nan;97091.16;3495964;40;20501;-72
2021/06/10 08:07:05;;;;;;;12.90;10.83;;;;;;;22.12;nan;97078.03;3508493;40;20466;-73
2021/06/10 08:09:33;;;;;;;14.87;11.23;;;;;;;22.03;nan;97089.72;3506357;40;21009;-73
2021/06/10 08:12:01;;;;;;;15.50;11.63;;;;;;;22.75;nan;97080.19;3507702;40;20463;-72
2021/06/10 08:14:28;;;;;;;18.17;13.00;;;;;;;23.23;nan;97081.06;3506021;40;20475;-72
2021/06/10 08:16:57;;;;;;;14.23;11.83;;;;;;;23.20;nan;97081.41;3508210;40;20557;-72
2021/06/10 08:19:25;;;;;;;13.43;10.60;;;;;;;23.70;nan;97072.13;3504666;40;20483;-73
2021/06/10 08:21:52;;;;;;;17.40;12.77;;;;;;;23.64;nan;97073.66;3508496;40;20808;-73
2021/06/10 08:24:19;;;;;;;14.80;13.20;;;;;;;23.64;nan;97075.50;3506179;40;20471;-74
2021/06/10 08:26:48;;;;;;;17.37;11.57;;;;;;;23.42;nan;97069.94;3496170;40;20831;-73
2021/06/10 08:29:15;;;;;;;18.60;12.43;;;;;;;24.28;nan;97070.69;3505383;40;20475;-73
2021/06/10 08:31:43;;;;;;;12.37;10.87;;;;;;;24.07;nan;97059.84;3508249;40;20538;-73
2021/06/10 08:34:12;;;;;;;15.87;12.43;;;;;;;24.02;nan;97054.22;3506709;40;20550;-74
2021/06/10 08:36:40;;;;;;;15.20;12.80;;;;;;;23.73;nan;97068.25;3509264;40;21121;-72
2021/06/10 08:39:07;;;;;;;17.00;11.53;;;;;;;23.70;nan;97066.78;3503532;40;20832;-73
2021/06/10 08:41:35;;;;;;;15.83;13.57;;;;;;;23.52;nan;97064.34;3508667;40;20872;-73
2021/06/10 08:44:03;;;;;;;17.63;12.37;;;;;;;23.56;nan;97064.84;3493767;40;20866;-72
2021/06/10 08:46:31;;;;;;;24.33;14.40;;;;;;;;;;3508028;40;20471;-73
2021/06/10 08:48:58;;;;;;;16.90;13.80;;;;;;;24.24;nan;97069.41;3506623;40;20511;-73
2021/06/10 08:51:27;;;;;;;17.30;13.63;;;;;;;24.36;nan;97074.31;3508602;40;20464;-73
2021/06/10 08:53:56;;;;;;;16.70;13.60;;;;;;;24.58;nan;97075.31;3505874;40;20507;-74
2021/06/10 08:56:24;;;;;;;19.50;14.33;;;;;;;23.38;nan;97073.94;3508295;40;20443;-73
2021/06/10 08:58:51;;;;;;;19.07;15.97;;;;;;;23.44;nan;97073.28;3505369;40;20494;-73
2021/06/10 09:01:20;;;;;;;18.23;14.47;;;;;;;23.86;nan;97072.03;3508315;40;20474;-73
2021/06/10 09:03:47;;;;;;;15.90;13.60;;;;;;;24.15;nan;97069.66;3506657;40;20777;-72
2021/06/10 09:06:17;;;;;;;17.53;14.80;;;;;;;24.92;nan;97060.59;3509381;40;20440;-72
2021/06/10 09:08:47;;;;;;;56.50;36.87;;;;;;;24.52;nan;97063.53;3507636;40;20511;-74
2021/06/10 09:11:17;;;;;;;24.63;15.50;;;;;;;26.15;nan;97067.84;3509339;40;20914;-73
2021/06/10 09:13:48;;;;;;;24.77;16.57;;;;;;;26.34;nan;97071.69;3503767;40;20587;-72
2021/06/10 09:16:22;;;;;;;22.43;18.27;;;;;;;25.65;nan;97066.88;3499496;40;20618;-71
2021/06/10 09:18:56;;;;;;;26.30;18.40;;;;;;;25.75;nan;97063.91;3506973;40;20588;-71
2021/06/10 09:21:29;;;;;;;36.67;18.60;;;;;;;26.33;nan;97063.88;3507281;40;20895;-71
2021/06/10 09:24:15;;;;;;;21.17;15.93;;;;;;;26.00;nan;97070.56;3505584;40;20912;-70
2021/06/10 09:26:43;;;;;;;17.87;15.67;;;;;;;25.97;nan;97059.41;3505908;40;20813;-71
2021/06/10 09:29:11;;;;;;;20.13;15.03;;;;;;;26.59;nan;97053.34;3504228;40;21019;-70
2021/06/10 09:31:40;;;;;;;22.57;16.70;;;;;;;27.34;nan;97055.44;3495321;40;20703;-70
2021/06/10 09:34:13;;;;;;;21.83;17.70;;;;;;;27.18;nan;97056.59;3499239;40;21085;-70
2021/06/10 09:36:42;;;;;;;26.57;17.80;;;;;;;27.21;nan;97050.81;3507317;40;20467;-71
2021/06/10 09:39:14;;;;;;;20.27;18.07;;;;;;;26.49;nan;97058.19;3506189;40;20491;-71
2021/06/10 09:41:59;;;;;;;20.97;16.47;;;;;;;25.40;nan;97056.50;3499093;40;20836;-71
2021/06/10 09:44:37;;;;;;;23.17;17.77;;;;;;;26.20;nan;97060.03;3504334;40;21700;-70
2021/06/10 09:47:05;;;;;;;22.77;16.93;;;;;;;25.90;nan;97055.81;3508853;40;20837;-70
2021/06/10 09:49:33;;;;;;;18.40;16.40;;;;;;;26.16;nan;97061.44;3504604;40;20486;-70
2021/06/10 09:52:02;;;;;;;24.33;16.73;;;;;;;26.73;nan;97058.81;3505867;40;20896;-71
2021/06/10 09:54:45;;;;;;;19.37;14.80;;;;;;;27.23;nan;97059.50;3504630;40;20682;-70
2021/06/10 09:57:14;;;;;;;15.93;14.23;;;;;;;28.59;nan;97054.03;3506749;40;20921;-70
2021/06/10 09:59:55;;;;;;;18.43;14.70;;;;;;;29.01;nan;97044.84;3505482;40;20475;-70
2021/06/10 10:02:25;;;;;;;16.70;14.90;;;;;;;27.36;nan;97056.06;3507551;40;20780;-70
2021/06/10 10:05:07;;;;;;;17.30;14.33;;;;;;;27.46;nan;97047.63;3505793;40;20569;-70
2021/06/10 10:07:36;;;;;;;15.43;13.83;;;;;;;27.71;nan;97050.59;3508376;40;20534;-71
2021/06/10 10:10:07;;;;;;;14.47;12.97;;;;;;;28.27;nan;97054.88;3505804;40;20756;-72
2021/06/10 10:12:38;;;;;;;16.67;13.90;;;;;;;27.72;nan;97047.72;3508882;40;20550;-71
2021/06/10 10:15:07;;;;;;;16.40;14.67;;;;;;;25.29;nan;97043.59;3506479;40;20493;-71
2021/06/10 10:17:36;;;;;;;15.60;13.33;;;;;;;26.15;nan;97053.56;3508298;40;20787;-70
2021/06/10 10:20:05;;;;;;;17.57;15.60;;;;;;;25.54;nan;97048.59;3505985;40;20550;-71
2021/06/10 10:22:32;;;;;;;30.00;23.67;;;;;;;25.38;nan;97045.13;3508673;40;20473;-73
2021/06/10 10:25:00;;;;;;;18.20;16.30;;;;;;;25.37;nan;97046.16;3506646;40;20688;-73
2021/06/10 10:27:29;;;;;;;20.10;15.70;;;;;;;25.29;nan;97043.59;3508723;40;20786;-73
2021/06/10 10:29:57;;;;;;;23.07;15.80;;;;;;;25.32;nan;97051.22;3506460;40;20801;-73
2021/06/10 10:32:27;;;;;;;19.07;15.53;;;;;;;25.45;nan;97043.34;3508191;40;20948;-74
2021/06/10 10:35:24;;;;;;;24.70;17.10;;;;;;;25.94;nan;97041.00;3499914;40;20772;-74
2021/06/10 10:37:53;;;;;;;19.10;14.73;;;;;;;26.09;nan;97036.41;3508002;40;20526;-73
2021/06/10 10:40:23;;;;;;;22.33;14.77;;;;;;;26.43;nan;97034.81;3506062;40;20939;-73
2021/06/10 10:42:52;;;;;;;14.20;12.40;;;;;;;26.80;nan;97038.19;3499872;40;20479;-72
2021/06/10 10:45:22;;;;;;;20.50;15.67;;;;;;;26.62;nan;97028.78;3506141;40;20478;-73
2021/06/10 10:47:59;;;;;;;16.60;14.83;;;;;;;25.23;nan;97036.31;3508183;40;20790;-73
2021/06/10 10:50:36;;;;;;;17.13;13.30;;;;;;;26.42;nan;97031.31;3503533;40;20731;-73
2021/06/10 10:53:07;;;;;;;14.43;12.93;;;;;;;26.75;nan;97032.59;3498363;40;20844;-73
2021/06/10 10:55:35;;;;;;;14.57;13.00;;;;;;;26.37;nan;97022.19;3495457;40;20919;-73
2021/06/10 10:58:16;;;;;;;15.97;13.90;;;;;;;26.90;nan;97019.84;3507614;40;20863;-73
2021/06/10 11:00:51;;;;;;;29.23;12.50;;;;;;;28.59;nan;97027.09;3504841;40;20729;-73
2021/06/10 11:03:23;;;;;;;19.10;11.63;;;;;;;28.70;nan;97019.44;3505046;40;20891;-74
2021/06/10 11:05:51;;;;;;;12.60;10.77;;;;;;;28.77;nan;97023.75;3507643;40;20475;-73
2021/06/10 11:08:20;;;;;;;24.57;14.30;;;;;;;29.17;nan;96998.59;3507867;40;20459;-72
2021/06/10 11:11:03;;;;;;;13.50;12.10;;;;;;;28.10;nan;97003.28;3505036;40;20795;-73
2021/06/10 11:13:47;;;;;;;13.37;11.80;;;;;;;28.09;nan;97002.47;3494797;40;20468;-73
2021/06/10 11:16:15;;;;;;;24.30;10.87;;;;;;;28.76;nan;96999.72;3504379;40;20927;-73
2021/06/10 11:18:48;;;;;;;10.43;9.33;;;;;;;29.26;nan;96983.78;3505761;40;20546;-73
2021/06/10 11:21:53;;;;;;;11.73;9.93;;;;;;;28.92;nan;96993.88;3507323;40;20546;-74
2021/06/10 11:24:24;;;;;;;12.03;10.57;;;;;;;28.72;nan;96993.94;3496322;40;20776;-73
2021/06/10 11:27:02;;;;;;;47.33;13.27;;;;;;;29.96;nan;96993.78;3507066;40;20613;-73
2021/06/10 11:29:32;;;;;;;20.67;10.83;;;;;;;30.66;nan;96995.50;3505551;40;20521;-73
2021/06/10 11:32:25;;;;;;;13.93;12.30;;;;;;;29.09;nan;96998.75;3507980;40;20455;-73
2021/06/10 11:34:55;;;;;;;19.70;11.70;;;;;;;28.67;nan;97003.69;3495312;40;20732;-73
2021/06/10 11:37:26;;;;;;;21.37;11.50;;;;;;;28.69;nan;96997.03;3507312;40;20797;-73
2021/06/10 11:39:54;;;;;;;19.93;11.97;;;;;;;27.52;nan;96993.88;3504097;40;20495;-73
2021/06/10 11:42:24;;;;;;;12.73;9.57;;;;;;;28.53;nan;96995.63;3507642;40;20542;-73
2021/06/10 11:44:55;;;;;;;14.07;12.00;;;;;;;27.01;nan;96991.59;3506604;40;20781;-72
2021/06/10 11:47:24;;;;;;;12.13;10.77;;;;;;;27.78;nan;96993.09;3506302;40;20856;-73
2021/06/10 11:49:52;;;;;;;13.70;11.87;;;;;;;28.05;nan;96985.06;3497773;40;20748;-72
2021/06/10 11:52:20;;;;;;;18.00;10.67;;;;;;;29.31;nan;96975.09;3507457;40;20761;-70